sensor_id;sensor_type;location;lat;lon;timestamp;temperature;humidity
72905;DHT22;61048;52.162;4.516;2023-08-17T00:00:57;23.50;56.70
72905;DHT22;61048;52.162;4.516;2023-08-17T00:03:25;23.50;56.70
72905;DHT22;61048;52.162;4.516;2023-08-17T00:05:52;23.50;56.70
72905;DHT22;61048;52.162;4.516;2023-08-17T00:08:19;23.50;56.70
72905;DHT22;61048;52.162;4.516;2023-08-17T00:10:46;23.40;56.70
72905;DHT22;61048;52.162;4.516;2023-08-17T00:13:13;23.40;56.80
72905;DHT22;61048;52.162;4.516;2023-08-17T00:15:40;23.40;56.80
72905;DHT22;61048;52.162;4.516;2023-08-17T00:18:10;23.40;56.70
72905;DHT22;61048;52.162;4.516;2023-08-17T00:20:39;23.40;56.70
72905;DHT22;61048;52.162;4.516;2023-08-17T00:23:05;23.40;56.70
72905;DHT22;61048;52.162;4.516;2023-08-17T00:25:32;23.40;56.70
72905;DHT22;61048;52.162;4.516;2023-08-17T00:27:59;23.40;56.80
72905;DHT22;61048;52.162;4.516;2023-08-17T00:30:26;23.40;56.70
72905;DHT22;61048;52.162;4.516;2023-08-17T00:32:53;23.40;56.80
72905;DHT22;61048;52.162;4.516;2023-08-17T00:35:20;23.40;56.70
72905;DHT22;61048;52.162;4.516;2023-08-17T00:37:48;23.40;56.80
72905;DHT22;61048;52.162;4.516;2023-08-17T00:40:15;23.40;56.80
72905;DHT22;61048;52.162;4.516;2023-08-17T00:42:42;23.40;56.70
72905;DHT22;61048;52.162;4.516;2023-08-17T00:45:09;23.40;56.70
72905;DHT22;61048;52.162;4.516;2023-08-17T00:47:36;23.40;56.80
72905;DHT22;61048;52.162;4.516;2023-08-17T00:50:04;23.40;56.70
72905;DHT22;61048;52.162;4.516;2023-08-17T00:52:32;23.40;56.80
72905;DHT22;61048;52.162;4.516;2023-08-17T00:55:03;23.40;56.70
72905;DHT22;61048;52.162;4.516;2023-08-17T00:57:31;23.30;56.70
72905;DHT22;61048;52.162;4.516;2023-08-17T00:59:59;23.30;56.90
72905;DHT22;61048;52.162;4.516;2023-08-17T01:02:26;23.30;56.80
72905;DHT22;61048;52.162;4.516;2023-08-17T01:04:53;23.30;56.80
72905;DHT22;61048;52.162;4.516;2023-08-17T01:07:21;23.30;56.80
72905;DHT22;61048;52.162;4.516;2023-08-17T01:09:48;23.30;56.70
72905;DHT22;61048;52.162;4.516;2023-08-17T01:12:23;23.30;57.00
72905;DHT22;61048;52.162;4.516;2023-08-17T01:15:04;23.30;56.90
72905;DHT22;61048;52.162;4.516;2023-08-17T01:17:41;23.30;56.90
72905;DHT22;61048;52.162;4.516;2023-08-17T01:20:10;23.30;56.90
72905;DHT22;61048;52.162;4.516;2023-08-17T01:22:41;23.30;56.90
72905;DHT22;61048;52.162;4.516;2023-08-17T01:25:10;23.30;56.80
72905;DHT22;61048;52.162;4.516;2023-08-17T01:27:39;23.30;56.90
72905;DHT22;61048;52.162;4.516;2023-08-17T01:30:07;23.30;56.90
72905;DHT22;61048;52.162;4.516;2023-08-17T01:32:39;23.30;56.80
72905;DHT22;61048;52.162;4.516;2023-08-17T01:35:16;23.30;56.90
72905;DHT22;61048;52.162;4.516;2023-08-17T01:37:50;23.30;56.90
72905;DHT22;61048;52.162;4.516;2023-08-17T01:40:19;23.30;56.80
72905;DHT22;61048;52.162;4.516;2023-08-17T01:42:48;23.30;56.80
72905;DHT22;61048;52.162;4.516;2023-08-17T01:45:15;23.20;56.80
72905;DHT22;61048;52.162;4.516;2023-08-17T01:47:42;23.20;56.70
72905;DHT22;61048;52.162;4.516;2023-08-17T01:50:09;23.20;56.70
72905;DHT22;61048;52.162;4.516;2023-08-17T01:52:36;23.20;56.70
72905;DHT22;61048;52.162;4.516;2023-08-17T01:55:04;23.20;56.70
72905;DHT22;61048;52.162;4.516;2023-08-17T01:57:32;23.20;56.60
72905;DHT22;61048;52.162;4.516;2023-08-17T02:00:00;23.20;56.60
72905;DHT22;61048;52.162;4.516;2023-08-17T02:02:28;23.20;56.70
72905;DHT22;61048;52.162;4.516;2023-08-17T02:04:55;23.20;56.60
72905;DHT22;61048;52.162;4.516;2023-08-17T02:07:22;23.20;56.70
72905;DHT22;61048;52.162;4.516;2023-08-17T02:09:49;23.20;56.60
72905;DHT22;61048;52.162;4.516;2023-08-17T02:12:16;23.20;56.60
72905;DHT22;61048;52.162;4.516;2023-08-17T02:14:44;23.10;56.70
72905;DHT22;61048;52.162;4.516;2023-08-17T02:17:11;23.10;56.70
72905;DHT22;61048;52.162;4.516;2023-08-17T02:19:39;23.10;56.60
72905;DHT22;61048;52.162;4.516;2023-08-17T02:22:06;23.10;56.60
72905;DHT22;61048;52.162;4.516;2023-08-17T02:24:32;23.10;56.70
72905;DHT22;61048;52.162;4.516;2023-08-17T02:26:59;23.10;56.70
72905;DHT22;61048;52.162;4.516;2023-08-17T02:29:26;23.10;56.70
72905;DHT22;61048;52.162;4.516;2023-08-17T02:31:53;23.10;56.70
72905;DHT22;61048;52.162;4.516;2023-08-17T02:34:20;23.10;56.80
72905;DHT22;61048;52.162;4.516;2023-08-17T02:36:47;23.10;56.70
72905;DHT22;61048;52.162;4.516;2023-08-17T02:39:14;23.10;56.80
72905;DHT22;61048;52.162;4.516;2023-08-17T02:41:41;23.10;56.80
72905;DHT22;61048;52.162;4.516;2023-08-17T02:44:10;23.10;56.70
72905;DHT22;61048;52.162;4.516;2023-08-17T02:46:37;23.10;56.70
72905;DHT22;61048;52.162;4.516;2023-08-17T02:49:05;23.10;56.80
72905;DHT22;61048;52.162;4.516;2023-08-17T02:51:32;23.10;56.70
72905;DHT22;61048;52.162;4.516;2023-08-17T02:53:59;23.10;56.80
72905;DHT22;61048;52.162;4.516;2023-08-17T02:56:26;23.10;56.80
72905;DHT22;61048;52.162;4.516;2023-08-17T02:58:53;23.00;56.80
72905;DHT22;61048;52.162;4.516;2023-08-17T03:01:20;23.00;56.80
72905;DHT22;61048;52.162;4.516;2023-08-17T03:03:47;23.00;56.80
72905;DHT22;61048;52.162;4.516;2023-08-17T03:06:15;23.00;56.90
72905;DHT22;61048;52.162;4.516;2023-08-17T03:08:42;23.00;56.90
72905;DHT22;61048;52.162;4.516;2023-08-17T03:11:09;23.00;56.80
72905;DHT22;61048;52.162;4.516;2023-08-17T03:13:36;23.00;56.80
72905;DHT22;61048;52.162;4.516;2023-08-17T03:16:03;23.00;56.80
72905;DHT22;61048;52.162;4.516;2023-08-17T03:18:30;23.00;56.80
72905;DHT22;61048;52.162;4.516;2023-08-17T03:20:57;23.00;56.80
72905;DHT22;61048;52.162;4.516;2023-08-17T03:23:25;23.00;56.90
72905;DHT22;61048;52.162;4.516;2023-08-17T03:25:52;23.00;56.90
72905;DHT22;61048;52.162;4.516;2023-08-17T03:28:19;23.00;57.00
72905;DHT22;61048;52.162;4.516;2023-08-17T03:30:46;23.00;56.90
72905;DHT22;61048;52.162;4.516;2023-08-17T03:33:13;23.00;56.90
72905;DHT22;61048;52.162;4.516;2023-08-17T03:35:40;22.90;56.90
72905;DHT22;61048;52.162;4.516;2023-08-17T03:38:07;22.90;56.90
72905;DHT22;61048;52.162;4.516;2023-08-17T03:40:35;22.90;56.90
72905;DHT22;61048;52.162;4.516;2023-08-17T03:43:02;22.90;56.90
72905;DHT22;61048;52.162;4.516;2023-08-17T03:45:30;22.90;56.90
72905;DHT22;61048;52.162;4.516;2023-08-17T03:47:57;22.90;56.90
72905;DHT22;61048;52.162;4.516;2023-08-17T03:50:25;22.90;57.00
72905;DHT22;61048;52.162;4.516;2023-08-17T03:52:52;22.90;56.90
72905;DHT22;61048;52.162;4.516;2023-08-17T03:55:19;22.90;56.90
72905;DHT22;61048;52.162;4.516;2023-08-17T03:57:48;22.90;57.00
72905;DHT22;61048;52.162;4.516;2023-08-17T04:00:15;22.90;57.00
72905;DHT22;61048;52.162;4.516;2023-08-17T04:02:43;22.90;57.00
72905;DHT22;61048;52.162;4.516;2023-08-17T04:05:10;22.80;57.00
72905;DHT22;61048;52.162;4.516;2023-08-17T04:07:38;22.80;57.00
72905;DHT22;61048;52.162;4.516;2023-08-17T04:10:06;22.80;56.90
72905;DHT22;61048;52.162;4.516;2023-08-17T04:12:33;22.80;57.00
72905;DHT22;61048;52.162;4.516;2023-08-17T04:15:01;22.80;57.00
72905;DHT22;61048;52.162;4.516;2023-08-17T04:17:30;22.80;57.00
72905;DHT22;61048;52.162;4.516;2023-08-17T04:19:56;22.80;57.00
72905;DHT22;61048;52.162;4.516;2023-08-17T04:22:24;22.80;57.00
72905;DHT22;61048;52.162;4.516;2023-08-17T04:24:50;22.80;57.00
72905;DHT22;61048;52.162;4.516;2023-08-17T04:27:17;22.80;57.00
72905;DHT22;61048;52.162;4.516;2023-08-17T04:29:44;22.80;57.00
72905;DHT22;61048;52.162;4.516;2023-08-17T04:32:15;22.80;57.00
72905;DHT22;61048;52.162;4.516;2023-08-17T04:34:42;22.70;57.00
72905;DHT22;61048;52.162;4.516;2023-08-17T04:37:09;22.70;57.10
72905;DHT22;61048;52.162;4.516;2023-08-17T04:39:36;22.70;57.00
72905;DHT22;61048;52.162;4.516;2023-08-17T04:42:03;22.70;57.00
72905;DHT22;61048;52.162;4.516;2023-08-17T04:44:30;22.70;57.00
72905;DHT22;61048;52.162;4.516;2023-08-17T04:46:57;22.70;57.00
72905;DHT22;61048;52.162;4.516;2023-08-17T04:49:26;22.70;57.00
72905;DHT22;61048;52.162;4.516;2023-08-17T04:51:53;22.70;56.90
72905;DHT22;61048;52.162;4.516;2023-08-17T04:54:20;22.70;57.00
72905;DHT22;61048;52.162;4.516;2023-08-17T04:56:47;22.70;56.90
72905;DHT22;61048;52.162;4.516;2023-08-17T04:59:13;22.70;56.90
72905;DHT22;61048;52.162;4.516;2023-08-17T05:01:40;22.70;56.90
72905;DHT22;61048;52.162;4.516;2023-08-17T05:04:07;22.70;57.00
72905;DHT22;61048;52.162;4.516;2023-08-17T05:06:35;22.70;58.00
72905;DHT22;61048;52.162;4.516;2023-08-17T05:09:04;22.70;57.80
72905;DHT22;61048;52.162;4.516;2023-08-17T05:11:32;22.70;58.00
72905;DHT22;61048;52.162;4.516;2023-08-17T05:13:59;22.70;57.80
72905;DHT22;61048;52.162;4.516;2023-08-17T05:16:26;22.70;57.80
72905;DHT22;61048;52.162;4.516;2023-08-17T05:18:53;22.70;58.00
72905;DHT22;61048;52.162;4.516;2023-08-17T05:21:20;22.70;58.00
72905;DHT22;61048;52.162;4.516;2023-08-17T05:23:48;22.70;57.90
72905;DHT22;61048;52.162;4.516;2023-08-17T05:26:15;22.70;58.00
72905;DHT22;61048;52.162;4.516;2023-08-17T05:28:42;22.70;57.70
72905;DHT22;61048;52.162;4.516;2023-08-17T05:31:09;22.70;57.80
72905;DHT22;61048;52.162;4.516;2023-08-17T05:33:36;22.70;57.80
72905;DHT22;61048;52.162;4.516;2023-08-17T05:36:03;22.70;57.90
72905;DHT22;61048;52.162;4.516;2023-08-17T05:38:30;22.70;57.60
72905;DHT22;61048;52.162;4.516;2023-08-17T05:40:59;22.70;57.60
72905;DHT22;61048;52.162;4.516;2023-08-17T05:43:27;22.70;57.70
72905;DHT22;61048;52.162;4.516;2023-08-17T05:45:57;22.70;57.60
72905;DHT22;61048;52.162;4.516;2023-08-17T05:48:24;22.70;57.60
72905;DHT22;61048;52.162;4.516;2023-08-17T05:50:51;22.70;57.50
72905;DHT22;61048;52.162;4.516;2023-08-17T05:53:18;22.70;57.60
72905;DHT22;61048;52.162;4.516;2023-08-17T05:55:45;22.70;57.60
72905;DHT22;61048;52.162;4.516;2023-08-17T05:58:13;22.70;57.60
72905;DHT22;61048;52.162;4.516;2023-08-17T06:00:40;22.70;57.70
72905;DHT22;61048;52.162;4.516;2023-08-17T06:03:07;22.70;57.60
72905;DHT22;61048;52.162;4.516;2023-08-17T06:05:34;22.70;57.60
72905;DHT22;61048;52.162;4.516;2023-08-17T06:08:01;22.70;57.70
72905;DHT22;61048;52.162;4.516;2023-08-17T06:10:28;22.70;57.60
72905;DHT22;61048;52.162;4.516;2023-08-17T06:12:56;22.70;57.50
72905;DHT22;61048;52.162;4.516;2023-08-17T06:15:24;22.70;57.60
72905;DHT22;61048;52.162;4.516;2023-08-17T06:17:51;22.70;57.60
72905;DHT22;61048;52.162;4.516;2023-08-17T06:20:18;22.70;57.50
72905;DHT22;61048;52.162;4.516;2023-08-17T06:22:47;22.70;57.50
72905;DHT22;61048;52.162;4.516;2023-08-17T06:25:14;22.70;57.90
72905;DHT22;61048;52.162;4.516;2023-08-17T06:27:42;22.70;58.20
72905;DHT22;61048;52.162;4.516;2023-08-17T06:30:10;22.70;58.10
72905;DHT22;61048;52.162;4.516;2023-08-17T06:32:39;22.70;58.30
72905;DHT22;61048;52.162;4.516;2023-08-17T06:35:07;22.80;58.20
72905;DHT22;61048;52.162;4.516;2023-08-17T06:37:34;22.70;58.10
72905;DHT22;61048;52.162;4.516;2023-08-17T06:40:01;22.70;58.10
72905;DHT22;61048;52.162;4.516;2023-08-17T06:42:28;22.70;58.00
72905;DHT22;61048;52.162;4.516;2023-08-17T06:44:55;22.70;58.10
72905;DHT22;61048;52.162;4.516;2023-08-17T06:47:22;22.70;58.40
72905;DHT22;61048;52.162;4.516;2023-08-17T06:49:51;22.70;58.40
72905;DHT22;61048;52.162;4.516;2023-08-17T06:52:17;22.70;58.30
72905;DHT22;61048;52.162;4.516;2023-08-17T06:54:44;22.70;58.30
72905;DHT22;61048;52.162;4.516;2023-08-17T06:57:11;22.80;58.30
72905;DHT22;61048;52.162;4.516;2023-08-17T06:59:38;22.80;58.30
72905;DHT22;61048;52.162;4.516;2023-08-17T07:02:06;22.80;58.40
72905;DHT22;61048;52.162;4.516;2023-08-17T07:04:33;22.70;58.40
72905;DHT22;61048;52.162;4.516;2023-08-17T07:07:01;22.80;58.30
72905;DHT22;61048;52.162;4.516;2023-08-17T07:09:28;22.70;58.30
72905;DHT22;61048;52.162;4.516;2023-08-17T07:11:55;22.80;58.30
72905;DHT22;61048;52.162;4.516;2023-08-17T07:14:22;22.80;58.20
72905;DHT22;61048;52.162;4.516;2023-08-17T07:16:50;22.70;58.10
72905;DHT22;61048;52.162;4.516;2023-08-17T07:19:17;22.70;57.80
72905;DHT22;61048;52.162;4.516;2023-08-17T07:21:44;22.70;57.90
72905;DHT22;61048;52.162;4.516;2023-08-17T07:24:16;22.70;57.70
72905;DHT22;61048;52.162;4.516;2023-08-17T07:26:43;22.70;57.70
72905;DHT22;61048;52.162;4.516;2023-08-17T07:29:10;22.70;57.60
72905;DHT22;61048;52.162;4.516;2023-08-17T07:31:37;22.70;57.60
72905;DHT22;61048;52.162;4.516;2023-08-17T07:34:05;22.70;57.40
72905;DHT22;61048;52.162;4.516;2023-08-17T07:36:32;22.70;57.30
72905;DHT22;61048;52.162;4.516;2023-08-17T07:39:00;22.70;57.40
72905;DHT22;61048;52.162;4.516;2023-08-17T07:41:28;22.70;57.30
72905;DHT22;61048;52.162;4.516;2023-08-17T07:43:55;22.80;57.30
72905;DHT22;61048;52.162;4.516;2023-08-17T07:46:22;22.80;57.30
72905;DHT22;61048;52.162;4.516;2023-08-17T07:48:49;22.80;57.40
72905;DHT22;61048;52.162;4.516;2023-08-17T07:51:15;22.90;57.40
72905;DHT22;61048;52.162;4.516;2023-08-17T07:53:42;22.90;57.30
72905;DHT22;61048;52.162;4.516;2023-08-17T07:56:09;23.00;57.20
72905;DHT22;61048;52.162;4.516;2023-08-17T07:58:37;23.20;57.00
72905;DHT22;61048;52.162;4.516;2023-08-17T08:01:04;23.40;56.70
72905;DHT22;61048;52.162;4.516;2023-08-17T08:03:32;23.50;56.40
72905;DHT22;61048;52.162;4.516;2023-08-17T08:05:59;23.60;56.00
72905;DHT22;61048;52.162;4.516;2023-08-17T08:08:26;23.80;55.50
72905;DHT22;61048;52.162;4.516;2023-08-17T08:10:53;23.90;55.30
72905;DHT22;61048;52.162;4.516;2023-08-17T08:13:20;24.00;55.00
72905;DHT22;61048;52.162;4.516;2023-08-17T08:15:48;24.10;54.80
72905;DHT22;61048;52.162;4.516;2023-08-17T08:18:15;24.20;54.60
72905;DHT22;61048;52.162;4.516;2023-08-17T08:20:42;24.20;54.50
72905;DHT22;61048;52.162;4.516;2023-08-17T08:23:09;24.30;54.50
72905;DHT22;61048;52.162;4.516;2023-08-17T08:25:37;24.40;54.50
72905;DHT22;61048;52.162;4.516;2023-08-17T08:28:04;24.50;54.20
72905;DHT22;61048;52.162;4.516;2023-08-17T08:30:31;24.50;54.10
72905;DHT22;61048;52.162;4.516;2023-08-17T08:32:59;24.50;54.20
72905;DHT22;61048;52.162;4.516;2023-08-17T08:35:28;24.60;54.00
72905;DHT22;61048;52.162;4.516;2023-08-17T08:37:55;24.60;53.90
72905;DHT22;61048;52.162;4.516;2023-08-17T08:40:27;24.60;53.80
72905;DHT22;61048;52.162;4.516;2023-08-17T08:42:55;24.60;53.80
72905;DHT22;61048;52.162;4.516;2023-08-17T08:45:23;24.60;53.60
72905;DHT22;61048;52.162;4.516;2023-08-17T08:47:51;24.70;53.50
72905;DHT22;61048;52.162;4.516;2023-08-17T08:50:20;24.70;53.40
72905;DHT22;61048;52.162;4.516;2023-08-17T08:52:50;24.70;53.40
72905;DHT22;61048;52.162;4.516;2023-08-17T08:55:23;24.80;53.30
72905;DHT22;61048;52.162;4.516;2023-08-17T08:57:50;24.80;53.30
72905;DHT22;61048;52.162;4.516;2023-08-17T09:00:19;24.80;53.20
72905;DHT22;61048;52.162;4.516;2023-08-17T09:02:46;24.80;53.10
72905;DHT22;61048;52.162;4.516;2023-08-17T09:05:15;24.90;53.00
72905;DHT22;61048;52.162;4.516;2023-08-17T09:07:44;24.90;53.00
72905;DHT22;61048;52.162;4.516;2023-08-17T09:10:11;24.90;53.00
72905;DHT22;61048;52.162;4.516;2023-08-17T09:12:39;24.90;53.00
72905;DHT22;61048;52.162;4.516;2023-08-17T09:15:07;24.90;53.00
72905;DHT22;61048;52.162;4.516;2023-08-17T09:17:34;24.90;53.00
72905;DHT22;61048;52.162;4.516;2023-08-17T09:20:02;24.90;52.60
72905;DHT22;61048;52.162;4.516;2023-08-17T09:22:37;24.70;52.60
72905;DHT22;61048;52.162;4.516;2023-08-17T09:25:07;24.60;52.80
72905;DHT22;61048;52.162;4.516;2023-08-17T09:27:34;24.40;53.00
72905;DHT22;61048;52.162;4.516;2023-08-17T09:30:03;24.30;53.40
72905;DHT22;61048;52.162;4.516;2023-08-17T09:32:31;24.30;53.60
72905;DHT22;61048;52.162;4.516;2023-08-17T09:35:00;24.30;53.70
72905;DHT22;61048;52.162;4.516;2023-08-17T09:37:27;24.30;53.80
72905;DHT22;61048;52.162;4.516;2023-08-17T09:39:55;24.20;53.80
72905;DHT22;61048;52.162;4.516;2023-08-17T09:42:23;24.10;54.10
72905;DHT22;61048;52.162;4.516;2023-08-17T09:44:51;24.10;54.10
72905;DHT22;61048;52.162;4.516;2023-08-17T09:47:19;24.00;54.20
72905;DHT22;61048;52.162;4.516;2023-08-17T09:49:48;23.90;54.50
72905;DHT22;61048;52.162;4.516;2023-08-17T09:52:16;23.90;54.60
72905;DHT22;61048;52.162;4.516;2023-08-17T09:54:43;23.70;54.50
72905;DHT22;61048;52.162;4.516;2023-08-17T09:57:12;23.80;54.90
72905;DHT22;61048;52.162;4.516;2023-08-17T09:59:41;23.80;54.70
72905;DHT22;61048;52.162;4.516;2023-08-17T10:02:16;23.70;54.80
72905;DHT22;61048;52.162;4.516;2023-08-17T10:04:45;23.70;54.80
72905;DHT22;61048;52.162;4.516;2023-08-17T10:07:18;23.70;55.00
72905;DHT22;61048;52.162;4.516;2023-08-17T10:09:50;23.70;54.70
72905;DHT22;61048;52.162;4.516;2023-08-17T10:12:20;23.60;54.70
72905;DHT22;61048;52.162;4.516;2023-08-17T10:14:55;23.50;54.90
72905;DHT22;61048;52.162;4.516;2023-08-17T10:17:26;23.50;55.10
72905;DHT22;61048;52.162;4.516;2023-08-17T10:19:55;23.50;55.10
72905;DHT22;61048;52.162;4.516;2023-08-17T10:22:27;23.50;54.90
72905;DHT22;61048;52.162;4.516;2023-08-17T10:24:57;23.50;55.20
72905;DHT22;61048;52.162;4.516;2023-08-17T10:27:25;23.50;55.40
72905;DHT22;61048;52.162;4.516;2023-08-17T10:29:54;23.50;55.60
72905;DHT22;61048;52.162;4.516;2023-08-17T10:32:23;23.40;55.70
72905;DHT22;61048;52.162;4.516;2023-08-17T10:34:51;23.40;55.70
72905;DHT22;61048;52.162;4.516;2023-08-17T10:37:19;23.40;55.90
72905;DHT22;61048;52.162;4.516;2023-08-17T10:39:48;23.30;55.80
72905;DHT22;61048;52.162;4.516;2023-08-17T10:42:15;23.30;55.50
72905;DHT22;61048;52.162;4.516;2023-08-17T10:44:58;23.30;55.50
72905;DHT22;61048;52.162;4.516;2023-08-17T10:47:28;23.20;55.50
72905;DHT22;61048;52.162;4.516;2023-08-17T10:49:56;23.20;55.60
72905;DHT22;61048;52.162;4.516;2023-08-17T10:52:26;23.20;55.70
72905;DHT22;61048;52.162;4.516;2023-08-17T10:54:53;23.30;55.80
72905;DHT22;61048;52.162;4.516;2023-08-17T10:57:28;23.30;55.60
72905;DHT22;61048;52.162;4.516;2023-08-17T11:00:14;23.30;55.70
72905;DHT22;61048;52.162;4.516;2023-08-17T11:02:43;23.20;55.90
72905;DHT22;61048;52.162;4.516;2023-08-17T11:05:11;23.20;56.00
72905;DHT22;61048;52.162;4.516;2023-08-17T11:07:39;23.20;56.10
72905;DHT22;61048;52.162;4.516;2023-08-17T11:10:30;23.20;56.30
72905;DHT22;61048;52.162;4.516;2023-08-17T11:12:58;23.30;56.10
72905;DHT22;61048;52.162;4.516;2023-08-17T11:15:35;23.30;56.00
72905;DHT22;61048;52.162;4.516;2023-08-17T11:18:05;23.20;56.00
72905;DHT22;61048;52.162;4.516;2023-08-17T11:20:33;23.10;56.20
72905;DHT22;61048;52.162;4.516;2023-08-17T11:23:00;23.10;56.40
72905;DHT22;61048;52.162;4.516;2023-08-17T11:25:27;23.10;56.30
72905;DHT22;61048;52.162;4.516;2023-08-17T11:27:54;23.10;56.40
72905;DHT22;61048;52.162;4.516;2023-08-17T11:30:21;23.10;56.70
72905;DHT22;61048;52.162;4.516;2023-08-17T11:32:52;23.10;56.70
72905;DHT22;61048;52.162;4.516;2023-08-17T11:35:19;23.10;57.00
72905;DHT22;61048;52.162;4.516;2023-08-17T11:37:47;23.10;57.10
72905;DHT22;61048;52.162;4.516;2023-08-17T11:40:15;23.00;57.10
72905;DHT22;61048;52.162;4.516;2023-08-17T11:42:43;23.10;57.20
72905;DHT22;61048;52.162;4.516;2023-08-17T11:45:10;23.10;57.30
72905;DHT22;61048;52.162;4.516;2023-08-17T11:47:38;23.00;57.20
72905;DHT22;61048;52.162;4.516;2023-08-17T11:50:09;23.00;57.50
72905;DHT22;61048;52.162;4.516;2023-08-17T11:52:36;23.10;57.50
72905;DHT22;61048;52.162;4.516;2023-08-17T11:55:04;23.20;57.40
72905;DHT22;61048;52.162;4.516;2023-08-17T11:57:32;23.20;57.00
72905;DHT22;61048;52.162;4.516;2023-08-17T12:00:00;23.20;56.90
72905;DHT22;61048;52.162;4.516;2023-08-17T12:02:30;23.20;57.00
72905;DHT22;61048;52.162;4.516;2023-08-17T12:04:57;23.20;56.90
72905;DHT22;61048;52.162;4.516;2023-08-17T12:07:25;23.20;57.10
72905;DHT22;61048;52.162;4.516;2023-08-17T12:09:53;23.10;57.10
72905;DHT22;61048;52.162;4.516;2023-08-17T12:12:21;23.10;57.30
72905;DHT22;61048;52.162;4.516;2023-08-17T12:14:49;23.00;57.40
72905;DHT22;61048;52.162;4.516;2023-08-17T12:17:16;23.10;57.50
72905;DHT22;61048;52.162;4.516;2023-08-17T12:19:43;23.10;57.60
72905;DHT22;61048;52.162;4.516;2023-08-17T12:22:12;23.10;57.50
72905;DHT22;61048;52.162;4.516;2023-08-17T12:24:41;23.00;57.60
72905;DHT22;61048;52.162;4.516;2023-08-17T12:27:09;23.00;57.90
72905;DHT22;61048;52.162;4.516;2023-08-17T12:29:46;23.10;57.90
72905;DHT22;61048;52.162;4.516;2023-08-17T12:32:14;23.20;57.80
72905;DHT22;61048;52.162;4.516;2023-08-17T12:34:41;23.20;57.60
72905;DHT22;61048;52.162;4.516;2023-08-17T12:37:09;23.20;57.60
72905;DHT22;61048;52.162;4.516;2023-08-17T12:39:36;23.30;57.50
72905;DHT22;61048;52.162;4.516;2023-08-17T12:42:05;23.30;57.30
72905;DHT22;61048;52.162;4.516;2023-08-17T12:44:32;23.30;57.40
72905;DHT22;61048;52.162;4.516;2023-08-17T12:46:59;23.30;57.30
72905;DHT22;61048;52.162;4.516;2023-08-17T12:49:26;23.30;57.30
72905;DHT22;61048;52.162;4.516;2023-08-17T12:51:53;23.30;57.60
72905;DHT22;61048;52.162;4.516;2023-08-17T12:54:20;23.30;57.60
72905;DHT22;61048;52.162;4.516;2023-08-17T12:56:47;23.30;57.50
72905;DHT22;61048;52.162;4.516;2023-08-17T12:59:15;23.30;57.50
72905;DHT22;61048;52.162;4.516;2023-08-17T13:01:42;23.30;57.40
72905;DHT22;61048;52.162;4.516;2023-08-17T13:04:09;23.30;57.40
72905;DHT22;61048;52.162;4.516;2023-08-17T13:06:36;23.30;57.40
72905;DHT22;61048;52.162;4.516;2023-08-17T13:09:03;23.30;57.30
72905;DHT22;61048;52.162;4.516;2023-08-17T13:11:30;23.30;57.30
72905;DHT22;61048;52.162;4.516;2023-08-17T13:13:57;23.20;57.40
72905;DHT22;61048;52.162;4.516;2023-08-17T13:16:25;23.30;57.40
72905;DHT22;61048;52.162;4.516;2023-08-17T13:18:52;23.30;57.40
72905;DHT22;61048;52.162;4.516;2023-08-17T13:21:19;23.30;57.40
72905;DHT22;61048;52.162;4.516;2023-08-17T13:23:46;23.40;57.20
72905;DHT22;61048;52.162;4.516;2023-08-17T13:26:13;23.30;57.30
72905;DHT22;61048;52.162;4.516;2023-08-17T13:28:40;23.30;57.30
72905;DHT22;61048;52.162;4.516;2023-08-17T13:31:07;23.30;57.40
72905;DHT22;61048;52.162;4.516;2023-08-17T13:33:35;23.30;57.40
72905;DHT22;61048;52.162;4.516;2023-08-17T13:36:02;23.30;57.30
72905;DHT22;61048;52.162;4.516;2023-08-17T13:38:29;23.20;57.30
72905;DHT22;61048;52.162;4.516;2023-08-17T13:40:57;23.20;57.50
72905;DHT22;61048;52.162;4.516;2023-08-17T13:43:24;23.10;57.70
72905;DHT22;61048;52.162;4.516;2023-08-17T13:45:50;23.10;57.80
72905;DHT22;61048;52.162;4.516;2023-08-17T13:48:17;23.10;57.90
72905;DHT22;61048;52.162;4.516;2023-08-17T13:50:46;23.20;57.90
72905;DHT22;61048;52.162;4.516;2023-08-17T13:53:13;23.10;57.90
72905;DHT22;61048;52.162;4.516;2023-08-17T13:55:40;23.10;57.90
72905;DHT22;61048;52.162;4.516;2023-08-17T13:58:07;23.20;57.80
72905;DHT22;61048;52.162;4.516;2023-08-17T14:00:35;23.10;57.80
72905;DHT22;61048;52.162;4.516;2023-08-17T14:03:03;23.20;57.80
72905;DHT22;61048;52.162;4.516;2023-08-17T14:05:31;23.20;57.80
72905;DHT22;61048;52.162;4.516;2023-08-17T14:08:00;23.10;57.90
72905;DHT22;61048;52.162;4.516;2023-08-17T14:10:29;23.10;57.90
72905;DHT22;61048;52.162;4.516;2023-08-17T14:12:56;23.10;58.00
72905;DHT22;61048;52.162;4.516;2023-08-17T14:15:23;23.10;57.90
72905;DHT22;61048;52.162;4.516;2023-08-17T14:17:50;23.10;58.10
72905;DHT22;61048;52.162;4.516;2023-08-17T14:20:17;23.10;58.20
72905;DHT22;61048;52.162;4.516;2023-08-17T14:22:44;23.00;58.20
72905;DHT22;61048;52.162;4.516;2023-08-17T14:25:12;23.00;58.20
72905;DHT22;61048;52.162;4.516;2023-08-17T14:27:41;23.00;58.30
72905;DHT22;61048;52.162;4.516;2023-08-17T14:30:08;22.90;58.40
72905;DHT22;61048;52.162;4.516;2023-08-17T14:32:35;22.90;58.50
72905;DHT22;61048;52.162;4.516;2023-08-17T14:35:03;22.90;58.60
72905;DHT22;61048;52.162;4.516;2023-08-17T14:37:29;22.80;58.60
72905;DHT22;61048;52.162;4.516;2023-08-17T14:39:56;22.80;58.70
72905;DHT22;61048;52.162;4.516;2023-08-17T14:42:25;22.70;58.80
72905;DHT22;61048;52.162;4.516;2023-08-17T14:44:52;22.80;58.90
72905;DHT22;61048;52.162;4.516;2023-08-17T14:47:19;22.70;58.80
72905;DHT22;61048;52.162;4.516;2023-08-17T14:49:46;22.70;58.90
72905;DHT22;61048;52.162;4.516;2023-08-17T14:52:13;22.70;59.00
72905;DHT22;61048;52.162;4.516;2023-08-17T14:54:39;22.70;59.00
72905;DHT22;61048;52.162;4.516;2023-08-17T14:57:06;22.60;59.10
72905;DHT22;61048;52.162;4.516;2023-08-17T14:59:35;22.60;59.20
72905;DHT22;61048;52.162;4.516;2023-08-17T15:02:02;22.60;59.20
72905;DHT22;61048;52.162;4.516;2023-08-17T15:04:29;22.60;59.30
72905;DHT22;61048;52.162;4.516;2023-08-17T15:06:56;22.60;59.40
72905;DHT22;61048;52.162;4.516;2023-08-17T15:09:23;22.60;59.50
72905;DHT22;61048;52.162;4.516;2023-08-17T15:11:50;22.60;59.70
72905;DHT22;61048;52.162;4.516;2023-08-17T15:14:17;22.60;59.50
72905;DHT22;61048;52.162;4.516;2023-08-17T15:16:45;22.60;59.60
72905;DHT22;61048;52.162;4.516;2023-08-17T15:19:12;22.60;59.70
72905;DHT22;61048;52.162;4.516;2023-08-17T15:21:39;22.60;59.70
72905;DHT22;61048;52.162;4.516;2023-08-17T15:24:06;22.60;59.70
72905;DHT22;61048;52.162;4.516;2023-08-17T15:26:33;22.60;59.70
72905;DHT22;61048;52.162;4.516;2023-08-17T15:29:00;22.70;59.60
72905;DHT22;61048;52.162;4.516;2023-08-17T15:31:27;22.70;59.60
72905;DHT22;61048;52.162;4.516;2023-08-17T15:33:55;22.70;59.50